Flugplatz Greiz-Obergrochlitz

Für EDOT sind keine METAR/TAF Berichte vorhanden.
Es werden die Flugwettermeldungen vom Flugplatz Altenburg-Nobitz in 44 km Entfernung angezeigt.

Bericht für EDAC

vom 01.08. um 15:50 UTC

Wind 4 kt aus 10°

Sichtweite 10 km oder mehr

gering bewölkt in 4400 ft

Luftdruck 1008 hPa

EDAC 011550Z 01004KT 340V050 9999 FEW044 19/// Q1008

Prognose für EDAC

vom 01.08. um 14:00 UTC

Zwischen 15:00 UTC und 17:00 UTC

Wind 5 kt aus 270°

Sichtweite 10 km oder mehr

keine signifikanten Wettererscheinungen

keine Wolken


Zwischen 15:00 UTC und 22:00 UTC zeitweise

Regenschauer

aufgelockert bewölkt in 2000 ft


Zwischen 16:00 UTC und 21:00 UTC zeitweise mit einer Wahrscheinlichkeit von 30%

Code: TSRA


Zwischen 17:00 und 19:00 UTC übergehend zu

Wind 4 kt aus 210°

Sichtweite 10 km oder mehr

keine signifikanten Wettererscheinungen

keine Wolken

TAF EDAC 011400Z 0115/0124 27005KT CAVOK TEMPO 0115/0122 SHRA SCT020CB PROB30 TEMPO 0116/0121 TSRA BECMG 0117/0119 21004KT
Impressum